sensor_id;sensor_type;location;lat;lon;timestamp;P1;P2;P0
77699;PMS5003;66867;42.658;23.320;2023-04-15T00:00:00;20;20;
77699;PMS5003;66867;42.658;23.320;2023-04-15T00:01:00;24;23;
77699;PMS5003;66867;42.658;23.320;2023-04-15T00:02:00;18;17;
77699;PMS5003;66867;42.658;23.320;2023-04-15T00:03:00;22;20;
77699;PMS5003;66867;42.658;23.320;2023-04-15T00:04:00;22;20;
77699;PMS5003;66867;42.658;23.320;2023-04-15T00:05:00;22;21;
77699;PMS5003;66867;42.658;23.320;2023-04-15T00:06:00;17;16;
77699;PMS5003;66867;42.658;23.320;2023-04-15T00:07:00;23;21;
77699;PMS5003;66867;42.658;23.320;2023-04-15T00:08:00;23;21;
77699;PMS5003;66867;42.658;23.320;2023-04-15T00:09:00;21;21;
77699;PMS5003;66867;42.658;23.320;2023-04-15T00:10:00;20;19;
77699;PMS5003;66867;42.658;23.320;2023-04-15T00:11:00;20;19;
77699;PMS5003;66867;42.658;23.320;2023-04-15T00:12:00;17;16;
77699;PMS5003;66867;42.658;23.320;2023-04-15T00:13:00;18;17;
77699;PMS5003;66867;42.658;23.320;2023-04-15T00:14:00;19;19;
77699;PMS5003;66867;42.658;23.320;2023-04-15T00:15:00;21;17;
77699;PMS5003;66867;42.658;23.320;2023-04-15T00:16:00;16;16;
77699;PMS5003;66867;42.658;23.320;2023-04-15T00:17:00;21;20;
77699;PMS5003;66867;42.658;23.320;2023-04-15T00:18:00;15;15;
77699;PMS5003;66867;42.658;23.320;2023-04-15T00:19:00;20;18;
77699;PMS5003;66867;42.658;23.320;2023-04-15T00:20:00;21;21;
77699;PMS5003;66867;42.658;23.320;2023-04-15T00:21:00;18;17;
77699;PMS5003;66867;42.658;23.320;2023-04-15T00:22:00;20;18;
77699;PMS5003;66867;42.658;23.320;2023-04-15T00:23:01;21;21;
77699;PMS5003;66867;42.658;23.320;2023-04-15T00:24:00;20;16;
77699;PMS5003;66867;42.658;23.320;2023-04-15T00:25:00;21;20;
77699;PMS5003;66867;42.658;23.320;2023-04-15T00:26:00;23;22;
77699;PMS5003;66867;42.658;23.320;2023-04-15T00:27:00;26;26;
77699;PMS5003;66867;42.658;23.320;2023-04-15T00:28:00;20;18;
77699;PMS5003;66867;42.658;23.320;2023-04-15T00:29:00;21;21;
77699;PMS5003;66867;42.658;23.320;2023-04-15T00:30:00;20;18;
77699;PMS5003;66867;42.658;23.320;2023-04-15T00:31:00;21;18;
77699;PMS5003;66867;42.658;23.320;2023-04-15T00:32:00;24;23;
77699;PMS5003;66867;42.658;23.320;2023-04-15T00:33:00;22;21;
77699;PMS5003;66867;42.658;23.320;2023-04-15T00:34:00;21;21;
77699;PMS5003;66867;42.658;23.320;2023-04-15T00:35:00;23;21;
77699;PMS5003;66867;42.658;23.320;2023-04-15T00:36:00;23;22;
77699;PMS5003;66867;42.658;23.320;2023-04-15T00:37:00;25;25;
77699;PMS5003;66867;42.658;23.320;2023-04-15T00:38:00;24;24;
77699;PMS5003;66867;42.658;23.320;2023-04-15T00:39:00;22;22;
77699;PMS5003;66867;42.658;23.320;2023-04-15T00:40:00;21;20;
77699;PMS5003;66867;42.658;23.320;2023-04-15T00:41:00;25;24;
77699;PMS5003;66867;42.658;23.320;2023-04-15T00:42:01;25;24;
77699;PMS5003;66867;42.658;23.320;2023-04-15T00:43:00;30;26;
77699;PMS5003;66867;42.658;23.320;2023-04-15T00:44:00;25;25;
77699;PMS5003;66867;42.658;23.320;2023-04-15T00:45:00;30;29;
77699;PMS5003;66867;42.658;23.320;2023-04-15T00:46:00;24;22;
77699;PMS5003;66867;42.658;23.320;2023-04-15T00:47:00;26;24;
77699;PMS5003;66867;42.658;23.320;2023-04-15T00:48:00;23;23;
77699;PMS5003;66867;42.658;23.320;2023-04-15T00:49:02;26;26;
77699;PMS5003;66867;42.658;23.320;2023-04-15T00:50:00;27;24;
77699;PMS5003;66867;42.658;23.320;2023-04-15T00:51:00;27;25;
77699;PMS5003;66867;42.658;23.320;2023-04-15T00:52:00;21;20;
77699;PMS5003;66867;42.658;23.320;2023-04-15T00:53:00;22;21;
77699;PMS5003;66867;42.658;23.320;2023-04-15T00:54:01;25;24;
77699;PMS5003;66867;42.658;23.320;2023-04-15T00:55:00;24;22;
77699;PMS5003;66867;42.658;23.320;2023-04-15T00:56:00;23;22;
77699;PMS5003;66867;42.658;23.320;2023-04-15T00:57:00;22;20;
77699;PMS5003;66867;42.658;23.320;2023-04-15T00:58:00;18;17;
77699;PMS5003;66867;42.658;23.320;2023-04-15T00:59:00;20;20;
77699;PMS5003;66867;42.658;23.320;2023-04-15T01:00:00;24;23;
77699;PMS5003;66867;42.658;23.320;2023-04-15T01:01:00;22;20;
77699;PMS5003;66867;42.658;23.320;2023-04-15T01:02:00;23;22;
77699;PMS5003;66867;42.658;23.320;2023-04-15T01:03:00;21;18;
77699;PMS5003;66867;42.658;23.320;2023-04-15T01:04:00;18;18;
77699;PMS5003;66867;42.658;23.320;2023-04-15T01:05:00;23;21;
77699;PMS5003;66867;42.658;23.320;2023-04-15T01:06:00;17;17;
77699;PMS5003;66867;42.658;23.320;2023-04-15T01:07:00;18;17;
77699;PMS5003;66867;42.658;23.320;2023-04-15T01:08:01;21;21;
77699;PMS5003;66867;42.658;23.320;2023-04-15T01:09:00;21;20;
77699;PMS5003;66867;42.658;23.320;2023-04-15T01:10:02;18;17;
77699;PMS5003;66867;42.658;23.320;2023-04-15T01:11:01;20;20;
77699;PMS5003;66867;42.658;23.320;2023-04-15T01:12:00;19;19;
77699;PMS5003;66867;42.658;23.320;2023-04-15T01:13:01;22;20;
77699;PMS5003;66867;42.658;23.320;2023-04-15T01:14:00;23;21;
77699;PMS5003;66867;42.658;23.320;2023-04-15T01:15:01;19;19;
77699;PMS5003;66867;42.658;23.320;2023-04-15T01:16:00;20;20;
77699;PMS5003;66867;42.658;23.320;2023-04-15T01:17:00;22;21;
77699;PMS5003;66867;42.658;23.320;2023-04-15T01:18:01;21;19;
77699;PMS5003;66867;42.658;23.320;2023-04-15T01:19:00;15;15;
77699;PMS5003;66867;42.658;23.320;2023-04-15T01:20:00;21;19;
77699;PMS5003;66867;42.658;23.320;2023-04-15T01:21:00;21;20;
77699;PMS5003;66867;42.658;23.320;2023-04-15T01:22:01;17;16;
77699;PMS5003;66867;42.658;23.320;2023-04-15T01:23:00;20;19;
77699;PMS5003;66867;42.658;23.320;2023-04-15T01:24:01;22;20;
77699;PMS5003;66867;42.658;23.320;2023-04-15T01:25:05;21;20;
77699;PMS5003;66867;42.658;23.320;2023-04-15T01:26:00;23;21;
77699;PMS5003;66867;42.658;23.320;2023-04-15T01:27:00;21;21;
77699;PMS5003;66867;42.658;23.320;2023-04-15T01:28:00;24;22;
77699;PMS5003;66867;42.658;23.320;2023-04-15T01:29:00;20;20;
77699;PMS5003;66867;42.658;23.320;2023-04-15T01:30:00;23;23;
77699;PMS5003;66867;42.658;23.320;2023-04-15T01:31:11;20;20;
77699;PMS5003;66867;42.658;23.320;2023-04-15T01:32:00;20;20;
77699;PMS5003;66867;42.658;23.320;2023-04-15T01:33:00;23;22;
77699;PMS5003;66867;42.658;23.320;2023-04-15T01:34:00;22;22;
77699;PMS5003;66867;42.658;23.320;2023-04-15T01:35:00;20;19;
77699;PMS5003;66867;42.658;23.320;2023-04-15T01:36:00;21;21;
77699;PMS5003;66867;42.658;23.320;2023-04-15T01:37:00;21;20;
77699;PMS5003;66867;42.658;23.320;2023-04-15T01:38:08;23;19;
77699;PMS5003;66867;42.658;23.320;2023-04-15T01:39:00;22;22;
77699;PMS5003;66867;42.658;23.320;2023-04-15T01:40:00;22;22;
77699;PMS5003;66867;42.658;23.320;2023-04-15T01:41:00;24;23;
77699;PMS5003;66867;42.658;23.320;2023-04-15T01:42:00;20;20;
77699;PMS5003;66867;42.658;23.320;2023-04-15T01:43:01;24;20;
77699;PMS5003;66867;42.658;23.320;2023-04-15T01:44:00;22;20;
77699;PMS5003;66867;42.658;23.320;2023-04-15T01:45:00;21;21;
77699;PMS5003;66867;42.658;23.320;2023-04-15T01:46:00;23;22;
77699;PMS5003;66867;42.658;23.320;2023-04-15T01:47:00;23;22;
77699;PMS5003;66867;42.658;23.320;2023-04-15T01:48:00;24;23;
77699;PMS5003;66867;42.658;23.320;2023-04-15T01:49:00;24;22;
77699;PMS5003;66867;42.658;23.320;2023-04-15T01:50:00;24;23;
77699;PMS5003;66867;42.658;23.320;2023-04-15T01:51:00;24;24;
77699;PMS5003;66867;42.658;23.320;2023-04-15T01:52:00;21;19;
77699;PMS5003;66867;42.658;23.320;2023-04-15T01:53:00;22;21;
77699;PMS5003;66867;42.658;23.320;2023-04-15T01:54:00;19;19;
77699;PMS5003;66867;42.658;23.320;2023-04-15T01:55:00;24;22;
77699;PMS5003;66867;42.658;23.320;2023-04-15T01:56:00;21;21;
77699;PMS5003;66867;42.658;23.320;2023-04-15T01:57:00;21;20;
77699;PMS5003;66867;42.658;23.320;2023-04-15T01:58:00;21;20;
77699;PMS5003;66867;42.658;23.320;2023-04-15T01:59:00;24;21;
77699;PMS5003;66867;42.658;23.320;2023-04-15T02:00:00;22;22;
77699;PMS5003;66867;42.658;23.320;2023-04-15T02:01:00;24;24;
77699;PMS5003;66867;42.658;23.320;2023-04-15T02:02:00;24;22;
77699;PMS5003;66867;42.658;23.320;2023-04-15T02:03:00;19;19;
77699;PMS5003;66867;42.658;23.320;2023-04-15T02:04:00;21;20;
77699;PMS5003;66867;42.658;23.320;2023-04-15T02:05:00;20;19;
77699;PMS5003;66867;42.658;23.320;2023-04-15T02:06:00;24;24;
77699;PMS5003;66867;42.658;23.320;2023-04-15T02:07:00;23;21;
77699;PMS5003;66867;42.658;23.320;2023-04-15T02:08:00;23;23;
77699;PMS5003;66867;42.658;23.320;2023-04-15T02:09:00;23;23;
77699;PMS5003;66867;42.658;23.320;2023-04-15T02:10:00;21;21;
77699;PMS5003;66867;42.658;23.320;2023-04-15T02:11:00;24;22;
77699;PMS5003;66867;42.658;23.320;2023-04-15T02:12:00;22;22;
77699;PMS5003;66867;42.658;23.320;2023-04-15T02:13:00;27;26;
77699;PMS5003;66867;42.658;23.320;2023-04-15T02:14:00;22;21;
77699;PMS5003;66867;42.658;23.320;2023-04-15T02:15:01;19;18;
77699;PMS5003;66867;42.658;23.320;2023-04-15T02:16:00;21;20;
77699;PMS5003;66867;42.658;23.320;2023-04-15T02:17:00;20;20;
77699;PMS5003;66867;42.658;23.320;2023-04-15T02:18:00;23;23;
77699;PMS5003;66867;42.658;23.320;2023-04-15T02:19:00;26;22;
77699;PMS5003;66867;42.658;23.320;2023-04-15T02:20:00;22;21;
77699;PMS5003;66867;42.658;23.320;2023-04-15T02:21:00;22;20;
77699;PMS5003;66867;42.658;23.320;2023-04-15T02:22:00;24;23;
77699;PMS5003;66867;42.658;23.320;2023-04-15T02:23:00;29;28;
77699;PMS5003;66867;42.658;23.320;2023-04-15T02:24:00;21;20;
77699;PMS5003;66867;42.658;23.320;2023-04-15T02:25:00;19;18;
77699;PMS5003;66867;42.658;23.320;2023-04-15T02:26:00;23;22;
77699;PMS5003;66867;42.658;23.320;2023-04-15T02:27:00;22;21;
77699;PMS5003;66867;42.658;23.320;2023-04-15T02:28:00;21;21;
77699;PMS5003;66867;42.658;23.320;2023-04-15T02:29:00;20;20;
77699;PMS5003;66867;42.658;23.320;2023-04-15T02:30:00;21;21;
77699;PMS5003;66867;42.658;23.320;2023-04-15T02:31:04;17;17;
77699;PMS5003;66867;42.658;23.320;2023-04-15T02:32:00;20;19;
77699;PMS5003;66867;42.658;23.320;2023-04-15T02:33:00;19;18;
77699;PMS5003;66867;42.658;23.320;2023-04-15T02:34:00;17;15;
77699;PMS5003;66867;42.658;23.320;2023-04-15T02:35:02;18;17;
77699;PMS5003;66867;42.658;23.320;2023-04-15T02:36:00;18;17;
77699;PMS5003;66867;42.658;23.320;2023-04-15T02:37:00;18;17;
77699;PMS5003;66867;42.658;23.320;2023-04-15T02:38:00;22;21;
77699;PMS5003;66867;42.658;23.320;2023-04-15T02:39:00;20;19;
77699;PMS5003;66867;42.658;23.320;2023-04-15T02:40:00;20;19;
77699;PMS5003;66867;42.658;23.320;2023-04-15T02:41:00;17;17;
77699;PMS5003;66867;42.658;23.320;2023-04-15T02:42:00;19;19;
77699;PMS5003;66867;42.658;23.320;2023-04-15T02:43:00;20;19;
77699;PMS5003;66867;42.658;23.320;2023-04-15T02:44:00;18;18;
77699;PMS5003;66867;42.658;23.320;2023-04-15T02:45:00;22;21;
77699;PMS5003;66867;42.658;23.320;2023-04-15T02:46:00;20;20;
77699;PMS5003;66867;42.658;23.320;2023-04-15T02:47:00;18;18;
77699;PMS5003;66867;42.658;23.320;2023-04-15T02:48:00;19;19;
77699;PMS5003;66867;42.658;23.320;2023-04-15T02:49:00;20;19;
77699;PMS5003;66867;42.658;23.320;2023-04-15T02:50:02;22;21;
77699;PMS5003;66867;42.658;23.320;2023-04-15T02:51:14;23;22;
77699;PMS5003;66867;42.658;23.320;2023-04-15T02:52:00;25;23;
77699;PMS5003;66867;42.658;23.320;2023-04-15T02:53:00;18;18;
77699;PMS5003;66867;42.658;23.320;2023-04-15T02:54:00;20;20;
77699;PMS5003;66867;42.658;23.320;2023-04-15T02:55:00;21;21;
77699;PMS5003;66867;42.658;23.320;2023-04-15T02:56:00;22;22;
77699;PMS5003;66867;42.658;23.320;2023-04-15T02:57:00;22;22;
77699;PMS5003;66867;42.658;23.320;2023-04-15T02:58:00;19;19;
77699;PMS5003;66867;42.658;23.320;2023-04-15T02:59:00;21;19;
77699;PMS5003;66867;42.658;23.320;2023-04-15T03:00:00;26;25;
77699;PMS5003;66867;42.658;23.320;2023-04-15T03:01:00;27;25;
77699;PMS5003;66867;42.658;23.320;2023-04-15T03:02:00;27;25;
77699;PMS5003;66867;42.658;23.320;2023-04-15T03:03:03;23;22;
77699;PMS5003;66867;42.658;23.320;2023-04-15T03:04:00;32;27;
77699;PMS5003;66867;42.658;23.320;2023-04-15T03:05:00;27;27;
77699;PMS5003;66867;42.658;23.320;2023-04-15T03:06:00;29;29;
77699;PMS5003;66867;42.658;23.320;2023-04-15T03:07:00;22;22;
77699;PMS5003;66867;42.658;23.320;2023-04-15T03:08:00;27;26;
77699;PMS5003;66867;42.658;23.320;2023-04-15T03:09:00;27;27;
77699;PMS5003;66867;42.658;23.320;2023-04-15T03:10:00;27;26;
77699;PMS5003;66867;42.658;23.320;2023-04-15T03:11:00;27;26;
77699;PMS5003;66867;42.658;23.320;2023-04-15T03:12:00;28;26;
77699;PMS5003;66867;42.658;23.320;2023-04-15T03:13:00;25;22;
77699;PMS5003;66867;42.658;23.320;2023-04-15T03:14:00;25;24;
77699;PMS5003;66867;42.658;23.320;2023-04-15T03:15:00;27;24;
77699;PMS5003;66867;42.658;23.320;2023-04-15T03:16:00;29;26;
77699;PMS5003;66867;42.658;23.320;2023-04-15T03:17:00;26;25;
77699;PMS5003;66867;42.658;23.320;2023-04-15T03:18:00;26;26;
77699;PMS5003;66867;42.658;23.320;2023-04-15T03:19:00;26;25;
77699;PMS5003;66867;42.658;23.320;2023-04-15T03:20:01;30;29;
77699;PMS5003;66867;42.658;23.320;2023-04-15T03:21:00;29;28;
77699;PMS5003;66867;42.658;23.320;2023-04-15T03:22:00;26;26;
77699;PMS5003;66867;42.658;23.320;2023-04-15T03:23:00;25;25;
77699;PMS5003;66867;42.658;23.320;2023-04-15T03:24:00;26;25;
77699;PMS5003;66867;42.658;23.320;2023-04-15T03:25:00;24;24;
77699;PMS5003;66867;42.658;23.320;2023-04-15T03:26:01;26;22;
77699;PMS5003;66867;42.658;23.320;2023-04-15T03:27:00;25;24;
77699;PMS5003;66867;42.658;23.320;2023-04-15T03:28:00;23;22;
77699;PMS5003;66867;42.658;23.320;2023-04-15T03:29:00;25;24;
77699;PMS5003;66867;42.658;23.320;2023-04-15T03:30:00;27;26;
77699;PMS5003;66867;42.658;23.320;2023-04-15T03:31:00;29;25;
77699;PMS5003;66867;42.658;23.320;2023-04-15T03:32:00;26;23;
77699;PMS5003;66867;42.658;23.320;2023-04-15T03:33:00;26;25;
77699;PMS5003;66867;42.658;23.320;2023-04-15T03:34:00;24;24;
77699;PMS5003;66867;42.658;23.320;2023-04-15T03:35:00;25;22;
77699;PMS5003;66867;42.658;23.320;2023-04-15T03:36:00;29;28;
77699;PMS5003;66867;42.658;23.320;2023-04-15T03:37:00;27;26;
77699;PMS5003;66867;42.658;23.320;2023-04-15T03:38:00;26;25;
77699;PMS5003;66867;42.658;23.320;2023-04-15T03:39:00;21;21;
77699;PMS5003;66867;42.658;23.320;2023-04-15T03:40:00;26;24;
77699;PMS5003;66867;42.658;23.320;2023-04-15T03:41:00;22;22;
77699;PMS5003;66867;42.658;23.320;2023-04-15T03:42:00;21;20;
77699;PMS5003;66867;42.658;23.320;2023-04-15T03:43:00;27;24;
77699;PMS5003;66867;42.658;23.320;2023-04-15T03:44:00;26;24;
77699;PMS5003;66867;42.658;23.320;2023-04-15T03:45:00;27;24;
77699;PMS5003;66867;42.658;23.320;2023-04-15T03:46:00;25;25;
77699;PMS5003;66867;42.658;23.320;2023-04-15T03:47:00;24;24;
77699;PMS5003;66867;42.658;23.320;2023-04-15T03:48:00;24;23;
77699;PMS5003;66867;42.658;23.320;2023-04-15T03:49:00;26;24;
77699;PMS5003;66867;42.658;23.320;2023-04-15T03:50:00;24;23;
77699;PMS5003;66867;42.658;23.320;2023-04-15T03:51:00;26;26;
77699;PMS5003;66867;42.658;23.320;2023-04-15T03:52:00;25;24;
77699;PMS5003;66867;42.658;23.320;2023-04-15T03:53:00;24;24;
77699;PMS5003;66867;42.658;23.320;2023-04-15T03:54:00;24;24;
77699;PMS5003;66867;42.658;23.320;2023-04-15T03:55:00;20;19;
77699;PMS5003;66867;42.658;23.320;2023-04-15T03:56:00;27;27;
77699;PMS5003;66867;42.658;23.320;2023-04-15T03:57:00;21;21;
77699;PMS5003;66867;42.658;23.320;2023-04-15T03:58:00;25;23;
77699;PMS5003;66867;42.658;23.320;2023-04-15T03:59:00;30;27;
77699;PMS5003;66867;42.658;23.320;2023-04-15T04:00:00;24;23;
77699;PMS5003;66867;42.658;23.320;2023-04-15T04:01:00;30;24;
77699;PMS5003;66867;42.658;23.320;2023-04-15T04:02:00;21;21;
77699;PMS5003;66867;42.658;23.320;2023-04-15T04:03:00;22;21;
77699;PMS5003;66867;42.658;23.320;2023-04-15T04:04:00;29;25;
77699;PMS5003;66867;42.658;23.320;2023-04-15T04:05:00;27;26;
77699;PMS5003;66867;42.658;23.320;2023-04-15T04:06:00;23;23;
77699;PMS5003;66867;42.658;23.320;2023-04-15T04:07:00;26;26;
77699;PMS5003;66867;42.658;23.320;2023-04-15T04:08:00;30;28;
77699;PMS5003;66867;42.658;23.320;2023-04-15T04:09:00;34;32;
77699;PMS5003;66867;42.658;23.320;2023-04-15T04:10:01;31;31;
77699;PMS5003;66867;42.658;23.320;2023-04-15T04:11:00;39;37;
77699;PMS5003;66867;42.658;23.320;2023-04-15T04:12:00;37;34;
77699;PMS5003;66867;42.658;23.320;2023-04-15T04:13:00;35;34;
77699;PMS5003;66867;42.658;23.320;2023-04-15T04:14:00;35;34;
77699;PMS5003;66867;42.658;23.320;2023-04-15T04:15:00;33;33;
77699;PMS5003;66867;42.658;23.320;2023-04-15T04:16:00;40;37;
77699;PMS5003;66867;42.658;23.320;2023-04-15T04:17:00;33;32;
77699;PMS5003;66867;42.658;23.320;2023-04-15T04:18:00;35;34;
77699;PMS5003;66867;42.658;23.320;2023-04-15T04:19:00;35;33;
77699;PMS5003;66867;42.658;23.320;2023-04-15T04:20:00;38;34;
77699;PMS5003;66867;42.658;23.320;2023-04-15T04:21:00;38;35;
77699;PMS5003;66867;42.658;23.320;2023-04-15T04:22:00;32;31;
77699;PMS5003;66867;42.658;23.320;2023-04-15T04:23:00;36;34;
77699;PMS5003;66867;42.658;23.320;2023-04-15T04:24:00;32;31;
77699;PMS5003;66867;42.658;23.320;2023-04-15T04:25:00;34;33;
77699;PMS5003;66867;42.658;23.320;2023-04-15T04:26:00;37;35;
77699;PMS5003;66867;42.658;23.320;2023-04-15T04:27:00;31;29;
77699;PMS5003;66867;42.658;23.320;2023-04-15T04:28:00;28;27;
77699;PMS5003;66867;42.658;23.320;2023-04-15T04:29:00;28;26;
77699;PMS5003;66867;42.658;23.320;2023-04-15T04:30:00;33;31;
77699;PMS5003;66867;42.658;23.320;2023-04-15T04:31:00;28;26;
77699;PMS5003;66867;42.658;23.320;2023-04-15T04:32:00;25;25;
77699;PMS5003;66867;42.658;23.320;2023-04-15T04:33:00;31;29;
77699;PMS5003;66867;42.658;23.320;2023-04-15T04:34:00;29;29;
77699;PMS5003;66867;42.658;23.320;2023-04-15T04:35:00;32;32;
77699;PMS5003;66867;42.658;23.320;2023-04-15T04:36:00;32;31;
77699;PMS5003;66867;42.658;23.320;2023-04-15T04:37:00;29;29;
77699;PMS5003;66867;42.658;23.320;2023-04-15T04:38:00;29;29;
77699;PMS5003;66867;42.658;23.320;2023-04-15T04:39:00;32;32;
77699;PMS5003;66867;42.658;23.320;2023-04-15T04:40:00;37;34;
77699;PMS5003;66867;42.658;23.320;2023-04-15T04:42:00;30;30;
77699;PMS5003;66867;42.658;23.320;2023-04-15T04:43:00;27;27;
77699;PMS5003;66867;42.658;23.320;2023-04-15T04:44:00;26;25;
77699;PMS5003;66867;42.658;23.320;2023-04-15T04:45:00;24;23;
77699;PMS5003;66867;42.658;23.320;2023-04-15T04:46:00;25;21;
77699;PMS5003;66867;42.658;23.320;2023-04-15T04:47:00;24;24;
77699;PMS5003;66867;42.658;23.320;2023-04-15T04:48:00;35;34;
77699;PMS5003;66867;42.658;23.320;2023-04-15T04:49:00;36;34;
77699;PMS5003;66867;42.658;23.320;2023-04-15T04:50:00;34;33;
77699;PMS5003;66867;42.658;23.320;2023-04-15T04:51:00;39;36;
77699;PMS5003;66867;42.658;23.320;2023-04-15T04:52:00;35;34;
77699;PMS5003;66867;42.658;23.320;2023-04-15T04:53:00;38;35;
77699;PMS5003;66867;42.658;23.320;2023-04-15T04:54:00;33;32;
77699;PMS5003;66867;42.658;23.320;2023-04-15T04:55:00;32;30;
77699;PMS5003;66867;42.658;23.320;2023-04-15T04:56:00;35;34;
77699;PMS5003;66867;42.658;23.320;2023-04-15T04:57:00;36;34;
77699;PMS5003;66867;42.658;23.320;2023-04-15T04:58:00;33;30;
77699;PMS5003;66867;42.658;23.320;2023-04-15T04:59:00;37;35;
77699;PMS5003;66867;42.658;23.320;2023-04-15T05:00:01;32;30;
77699;PMS5003;66867;42.658;23.320;2023-04-15T05:01:00;33;30;
77699;PMS5003;66867;42.658;23.320;2023-04-15T05:02:00;35;33;
77699;PMS5003;66867;42.658;23.320;2023-04-15T05:03:00;36;34;
77699;PMS5003;66867;42.658;23.320;2023-04-15T05:04:00;29;28;
77699;PMS5003;66867;42.658;23.320;2023-04-15T05:05:00;34;32;
77699;PMS5003;66867;42.658;23.320;2023-04-15T05:06:00;30;29;
77699;PMS5003;66867;42.658;23.320;2023-04-15T05:07:00;33;32;
77699;PMS5003;66867;42.658;23.320;2023-04-15T05:08:00;36;34;
77699;PMS5003;66867;42.658;23.320;2023-04-15T05:09:00;30;30;
77699;PMS5003;66867;42.658;23.320;2023-04-15T05:10:00;34;33;
77699;PMS5003;66867;42.658;23.320;2023-04-15T05:11:01;38;35;
77699;PMS5003;66867;42.658;23.320;2023-04-15T05:12:00;32;30;
77699;PMS5003;66867;42.658;23.320;2023-04-15T05:13:00;26;26;
77699;PMS5003;66867;42.658;23.320;2023-04-15T05:14:00;33;31;
77699;PMS5003;66867;42.658;23.320;2023-04-15T05:15:00;28;27;
77699;PMS5003;66867;42.658;23.320;2023-04-15T05:16:00;28;28;
77699;PMS5003;66867;42.658;23.320;2023-04-15T05:17:00;30;29;
77699;PMS5003;66867;42.658;23.320;2023-04-15T05:18:00;33;27;
77699;PMS5003;66867;42.658;23.320;2023-04-15T05:19:00;28;27;
77699;PMS5003;66867;42.658;23.320;2023-04-15T05:20:01;34;31;
77699;PMS5003;66867;42.658;23.320;2023-04-15T05:21:01;28;27;
77699;PMS5003;66867;42.658;23.320;2023-04-15T05:22:00;30;27;
77699;PMS5003;66867;42.658;23.320;2023-04-15T05:23:00;28;27;
77699;PMS5003;66867;42.658;23.320;2023-04-15T05:24:00;34;31;
77699;PMS5003;66867;42.658;23.320;2023-04-15T05:25:00;33;33;
77699;PMS5003;66867;42.658;23.320;2023-04-15T05:26:00;29;28;
77699;PMS5003;66867;42.658;23.320;2023-04-15T05:27:00;29;29;
77699;PMS5003;66867;42.658;23.320;2023-04-15T05:28:00;29;28;
77699;PMS5003;66867;42.658;23.320;2023-04-15T05:29:00;27;24;
77699;PMS5003;66867;42.658;23.320;2023-04-15T05:30:00;30;29;
77699;PMS5003;66867;42.658;23.320;2023-04-15T05:31:00;26;24;
77699;PMS5003;66867;42.658;23.320;2023-04-15T05:32:00;24;23;
77699;PMS5003;66867;42.658;23.320;2023-04-15T05:33:00;28;27;
77699;PMS5003;66867;42.658;23.320;2023-04-15T05:34:00;23;22;
77699;PMS5003;66867;42.658;23.320;2023-04-15T05:35:00;24;22;
77699;PMS5003;66867;42.658;23.320;2023-04-15T05:36:00;22;21;
77699;PMS5003;66867;42.658;23.320;2023-04-15T05:37:00;24;24;
77699;PMS5003;66867;42.658;23.320;2023-04-15T05:38:00;28;25;
77699;PMS5003;66867;42.658;23.320;2023-04-15T05:39:00;24;23;
77699;PMS5003;66867;42.658;23.320;2023-04-15T05:40:00;25;24;
77699;PMS5003;66867;42.658;23.320;2023-04-15T05:41:00;28;27;
77699;PMS5003;66867;42.658;23.320;2023-04-15T05:42:00;25;23;
77699;PMS5003;66867;42.658;23.320;2023-04-15T05:43:00;28;24;
77699;PMS5003;66867;42.658;23.320;2023-04-15T05:44:00;25;23;
77699;PMS5003;66867;42.658;23.320;2023-04-15T05:45:00;29;26;
77699;PMS5003;66867;42.658;23.320;2023-04-15T05:46:00;26;25;
77699;PMS5003;66867;42.658;23.320;2023-04-15T05:47:00;21;21;
77699;PMS5003;66867;42.658;23.320;2023-04-15T05:48:00;23;23;
77699;PMS5003;66867;42.658;23.320;2023-04-15T05:49:00;25;25;
77699;PMS5003;66867;42.658;23.320;2023-04-15T05:50:00;23;22;
77699;PMS5003;66867;42.658;23.320;2023-04-15T05:51:00;27;25;
77699;PMS5003;66867;42.658;23.320;2023-04-15T05:52:00;22;22;
77699;PMS5003;66867;42.658;23.320;2023-04-15T05:53:00;20;20;
77699;PMS5003;66867;42.658;23.320;2023-04-15T05:54:00;24;22;
77699;PMS5003;66867;42.658;23.320;2023-04-15T05:55:00;16;15;
77699;PMS5003;66867;42.658;23.320;2023-04-15T05:56:00;17;17;
77699;PMS5003;66867;42.658;23.320;2023-04-15T05:57:00;14;13;
77699;PMS5003;66867;42.658;23.320;2023-04-15T05:58:00;19;18;
77699;PMS5003;66867;42.658;23.320;2023-04-15T05:59:00;17;17;
77699;PMS5003;66867;42.658;23.320;2023-04-15T06:00:00;17;17;
77699;PMS5003;66867;42.658;23.320;2023-04-15T06:01:01;16;16;
77699;PMS5003;66867;42.658;23.320;2023-04-15T06:02:00;16;16;
77699;PMS5003;66867;42.658;23.320;2023-04-15T06:03:00;16;16;
77699;PMS5003;66867;42.658;23.320;2023-04-15T06:04:00;21;21;
77699;PMS5003;66867;42.658;23.320;2023-04-15T06:05:00;23;20;
77699;PMS5003;66867;42.658;23.320;2023-04-15T06:06:00;21;20;
77699;PMS5003;66867;42.658;23.320;2023-04-15T06:07:00;23;21;
77699;PMS5003;66867;42.658;23.320;2023-04-15T06:08:00;25;25;
77699;PMS5003;66867;42.658;23.320;2023-04-15T06:09:00;26;25;
77699;PMS5003;66867;42.658;23.320;2023-04-15T06:10:00;20;19;
77699;PMS5003;66867;42.658;23.320;2023-04-15T06:11:00;21;21;
77699;PMS5003;66867;42.658;23.320;2023-04-15T06:12:00;22;22;
77699;PMS5003;66867;42.658;23.320;2023-04-15T06:13:01;25;25;
77699;PMS5003;66867;42.658;23.320;2023-04-15T06:14:00;22;22;
77699;PMS5003;66867;42.658;23.320;2023-04-15T06:15:00;25;25;
77699;PMS5003;66867;42.658;23.320;2023-04-15T06:16:00;24;24;
77699;PMS5003;66867;42.658;23.320;2023-04-15T06:17:00;21;20;
77699;PMS5003;66867;42.658;23.320;2023-04-15T06:18:00;27;24;
77699;PMS5003;66867;42.658;23.320;2023-04-15T06:19:00;24;23;
77699;PMS5003;66867;42.658;23.320;2023-04-15T06:20:00;23;23;
77699;PMS5003;66867;42.658;23.320;2023-04-15T06:21:00;21;19;
77699;PMS5003;66867;42.658;23.320;2023-04-15T06:22:00;18;18;
77699;PMS5003;66867;42.658;23.320;2023-04-15T06:23:00;19;17;
77699;PMS5003;66867;42.658;23.320;2023-04-15T06:24:00;17;17;
77699;PMS5003;66867;42.658;23.320;2023-04-15T06:25:00;16;16;
77699;PMS5003;66867;42.658;23.320;2023-04-15T06:26:00;16;16;
77699;PMS5003;66867;42.658;23.320;2023-04-15T06:27:00;17;17;
77699;PMS5003;66867;42.658;23.320;2023-04-15T06:28:00;18;17;
77699;PMS5003;66867;42.658;23.320;2023-04-15T06:29:00;17;17;
77699;PMS5003;66867;42.658;23.320;2023-04-15T06:30:00;22;21;
77699;PMS5003;66867;42.658;23.320;2023-04-15T06:31:00;21;19;
77699;PMS5003;66867;42.658;23.320;2023-04-15T06:32:00;16;16;